SondeTracker

Meteorological Radiosondes Database

Operations

Sounding was ended - last measurement: 2022-12-06 01:20:58z

MAP
About Radiosonde

Number: U3054854

Launch Site: Brasilia (BR)

Type: RS41

AUX: NO

Frequency: 403.001 MHz

Max Speed: 94 km/h at 17299 m

Average Speed: 41.88 km/h

Max Altitude: 18883 m

Average Ascent Speed: 4.00 m/s

Average Descent Speed: 5.98 m/s

Status: UNKNOWN

Status Changes
Launch Site Type AUX Frequency Status Finder Landing Point Description Changes made by
APRS Statistics

Received Frames: 113

First Frame [UTC]: 2022-12-06 00:12:57z

Last Frame [UTC]: 2022-12-06 01:20:58z

Receivers: PT2VHF

Flight Time: 01:08:01 h

Distance From First Measurement: 36.92 km

Nearest City: Águas Lindas de Goiás (BR) [7.51 km]

Nearest Hunter: [0.00 km]

Ground Altitude: 1027 m

Distance from QTH: 0.00 km

APRS Data
Receiver Number Date/Time [UTC] φ λ Course [°] Speed [km/h] Altitude [m] Description
PT2VHFU30548542022-12-06 01:20:58-15.6812-48.3048204191671Clb=-2.8m/s t=17.5C h=84.9% p=834.8hPa 403.001 MHz Type=RS41-SGP ser=U3054854 Radiosonde
PT2VHFU30548542022-12-06 01:20:27-15.6791-48.3035215241779Clb=-2.1m/s t=17.0C h=85.2% p=824.2hPa 403.001 MHz Type=RS41-SGP ser=U3054854 Radiosonde
PT2VHFU30548542022-12-06 01:19:25-15.6753-48.3011214301945Clb=-2.9m/s t=15.6C h=93.1% p=808.6hPa 403.001 MHz Type=RS41-SGP ser=U3054854 Radiosonde
PT2VHFU30548542022-12-06 01:18:54-15.6743-48.3005216281993Clb=-3.0m/s t=15.2C h=92.9% p=804.1hPa 403.001 MHz Type=RS41-SGP ser=U3054854 Radiosonde
PT2VHFU30548542022-12-06 01:18:23-15.6724-48.299215312095Clb=-3.0m/s t=14.5C h=92.5% p=794.9hPa 403.001 MHz Type=RS41-SGP ser=U3054854 Radiosonde
PT2VHFU30548542022-12-06 01:17:54-15.6703-48.2974215332192Clb=-3.1m/s t=13.9C h=90.0% p=785.7hPa 403.001 MHz Type=RS41-SGP ser=U3054854 Radiosonde
PT2VHFU30548542022-12-06 01:17:22-15.668-48.2958216352289Clb=-3.1m/s t=13.2C h=91.0% p=777.1hPa 403.001 MHz Type=RS41-SGP ser=U3054854 Radiosonde
PT2VHFU30548542022-12-06 01:16:50-15.6658-48.2941217332391Clb=-3.3m/s t=12.4C h=90.9% p=767.7hPa 403.001 MHz Type=RS41-SGP ser=U3054854 Radiosonde
PT2VHFU30548542022-12-06 01:16:19-15.6637-48.2924220352492Clb=-3.6m/s t=11.7C h=93.0% p=758.5hPa 403.001 MHz Type=RS41-SGP ser=U3054854 Radiosonde
PT2VHFU30548542022-12-06 01:15:48-15.6615-48.2904220372608Clb=-3.9m/s t=10.9C h=93.3% p=748.3hPa 403.001 MHz Type=RS41-SGP ser=U3054854 Radiosonde
PT2VHFU30548542022-12-06 01:15:20-15.6592-48.2885217372730Clb=-4.2m/s t=10.2C h=96.4% p=737.4hPa 403.001 MHz Type=RS41-SGP ser=U3054854 Radiosonde
PT2VHFU30548542022-12-06 01:14:50-15.657-48.2867218372857Clb=-4.1m/s t=9.5C h=97.9% p=726.5hPa 403.001 MHz Type=RS41-SGP ser=U3054854 Radiosonde
PT2VHFU30548542022-12-06 01:14:21-15.6548-48.2849219332979Clb=-3.7m/s t=8.8C h=98.5% p=715.9hPa 403.001 MHz Type=RS41-SGP ser=U3054854 Radiosonde
PT2VHFU30548542022-12-06 01:13:49-15.6527-48.2833218313094Clb=-3.6m/s t=8.4C h=100.0% p=706.0hPa 403.001 MHz Type=RS41-SGP ser=U3054854 Radiosonde
PT2VHFU30548542022-12-06 01:13:18-15.6506-48.2817216313206Clb=-3.7m/s t=7.8C h=100.0% p=696.6hPa 403.001 MHz Type=RS41-SGP ser=U3054854 Radiosonde
PT2VHFU30548542022-12-06 01:12:47-15.6487-48.2803217303309Clb=-3.2m/s t=7.3C h=100.0% p=688.1hPa 403.001 MHz Type=RS41-SGP ser=U3054854 Radiosonde
PT2VHFU30548542022-12-06 01:12:15-15.6471-48.2788225263395Clb=-2.9m/s t=6.9C h=100.0% p=680.9hPa 403.001 MHz Type=RS41-SGP ser=U3054854 Radiosonde
PT2VHFU30548542022-12-06 01:11:43-15.6455-48.2773217263482Clb=-2.8m/s t=6.3C h=100.0% p=673.8hPa 403.001 MHz Type=RS41-SGP ser=U3054854 Radiosonde
PT2VHFU30548542022-12-06 01:11:13-15.6439-48.2761210243555Clb=-3.5m/s t=6.0C h=100.0% p=667.9hPa 403.001 MHz Type=RS41-SGP ser=U3054854 Radiosonde
PT2VHFU30548542022-12-06 01:10:41-15.6424-48.2751212223649Clb=-2.5m/s t=5.3C h=100.0% p=660.4hPa 403.001 MHz Type=RS41-SGP ser=U3054854 Radiosonde
PT2VHFU30548542022-12-06 01:10:10-15.6408-48.2743201203742Clb=-2.9m/s t=4.9C h=100.0% p=653.0hPa 403.001 MHz Type=RS41-SGP ser=U3054854 Radiosonde
PT2VHFU30548542022-12-06 01:09:40-15.6393-48.2736204193829Clb=-2.5m/s t=4.5C h=100.0% p=646.3hPa 403.001 MHz Type=RS41-SGP ser=U3054854 Radiosonde
PT2VHFU30548542022-12-06 01:09:09-15.6379-48.2729212193897Clb=-2.6m/s t=4.1C h=100.0% p=640.9hPa 403.001 MHz Type=RS41-SGP ser=U3054854 Radiosonde
PT2VHFU30548542022-12-06 01:08:36-15.6366-48.2719221223987Clb=-3.1m/s t=3.6C h=100.0% p=633.8hPa 403.001 MHz Type=RS41-SGP ser=U3054854 Radiosonde
PT2VHFU30548542022-12-06 01:08:02-15.6354-48.2707227194096Clb=-3.7m/s t=2.8C h=100.0% p=625.6hPa 403.001 MHz Type=RS41-SGP ser=U3054854 Radiosonde
PT2VHFU30548542022-12-06 01:07:31-15.6341-48.2694223204219Clb=-3.7m/s t=2.2C h=100.0% p=616.0hPa 403.001 MHz Type=RS41-SGP ser=U3054854 Radiosonde
PT2VHFU30548542022-12-06 01:06:59-15.6328-48.2681225204340Clb=-3.4m/s t=1.9C h=93.7% p=607.0hPa 403.001 MHz Type=RS41-SGP ser=U3054854 Radiosonde
PT2VHFU30548542022-12-06 01:06:43-15.6317-48.267219244433Clb=-3.4m/s t=1.4C h=99.9% p=600.2hPa 403.001 MHz Type=RS41-SGP ser=U3054854 Radiosonde
PT2VHFU30548542022-12-06 01:06:41-15.6302-48.2658212244544Clb=-3.5m/s t=1.3C h=96.3% p=592.1hPa 403.001 MHz Type=RS41-SGP ser=U3054854 Radiosonde
PT2VHFU30548542022-12-06 01:06:37-15.6285-48.2647210244658Clb=-3.8m/s t=0.5C h=99.4% p=583.7hPa 403.001 MHz Type=RS41-SGP ser=U3054854 Radiosonde
PT2VHFU30548542022-12-06 01:06:17-15.6269-48.2636216244774Clb=-3.9m/s t=-0.2C h=99.1% p=575.3hPa 403.001 MHz Type=RS41-SGP ser=U3054854 Radiosonde
PT2VHFU30548542022-12-06 01:06:00-15.6252-48.2625208244897Clb=-4.0m/s t=-0.8C h=98.4% p=566.6hPa 403.001 MHz Type=RS41-SGP ser=U3054854 Radiosonde
PT2VHFU30548542022-12-06 01:05:55-15.6238-48.2615219225005Clb=-3.8m/s t=-1.1C h=89.7% p=558.8hPa 403.001 MHz Type=RS41-SGP ser=U3054854 Radiosonde
PT2VHFU30548542022-12-06 01:05:49-15.6224-48.2602223225130Clb=-3.6m/s t=-1.9C h=86.0% p=550.3hPa 403.001 MHz Type=RS41-SGP ser=U3054854 Radiosonde
PT2VHFU30548542022-12-06 01:05:42-15.6211-48.2589229205249Clb=-3.8m/s t=-2.8C h=82.1% p=542.2hPa 403.001 MHz Type=RS41-SGP ser=U3054854 Radiosonde
PT2VHFU30548542022-12-06 01:05:14-15.6192-48.2567223195446Clb=-4.1m/s t=-3.7C h=91.2% p=528.8hPa 403.001 MHz Type=RS41-SGP ser=U3054854 Radiosonde
PT2VHFU30548542022-12-06 01:05:00-15.619-48.2564218205479Clb=-4.2m/s t=-3.9C h=92.7% p=526.4hPa 403.001 MHz Type=RS41-SGP ser=U3054854 Radiosonde
PT2VHFU30548542022-12-06 01:04:58-15.6178-48.2556207155617Clb=-4.6m/s t=-3.7C h=76.5% p=517.6hPa 403.001 MHz Type=RS41-SGP ser=U3054854 Radiosonde
PT2VHFU30548542022-12-06 01:04:38-15.6167-48.255208155756Clb=-4.5m/s t=-4.8C h=78.7% p=508.5hPa 403.001 MHz Type=RS41-SGP ser=U3054854 Radiosonde
PT2VHFU30548542022-12-06 01:03:59-15.6157-48.2544226135902Clb=-4.2m/s t=-5.8C h=82.1% p=499.1hPa 403.001 MHz Type=RS41-SGP ser=U3054854 Radiosonde
PT2VHFU30548542022-12-06 01:03:14-15.6152-48.2536246116029Clb=-4.6m/s t=-6.3C h=70.7% p=491.0hPa 403.001 MHz Type=RS41-SGP ser=U3054854 Radiosonde
PT2VHFU30548542022-12-06 01:02:34-15.6145-48.2527225136169Clb=-4.2m/s t=-7.3C h=72.2% p=482.4hPa 403.001 MHz Type=RS41-SGP ser=U3054854 Radiosonde
PT2VHFU30548542022-12-06 01:01:53-15.6136-48.2518226136302Clb=-4.4m/s t=-8.0C h=78.1% p=474.2hPa 403.001 MHz Type=RS41-SGP ser=U3054854 Radiosonde
PT2VHFU30548542022-12-06 01:01:07-15.6132-48.25124676439Clb=-4.2m/s t=-9.0C h=82.0% p=466.0hPa 403.001 MHz Type=RS41-SGP ser=U3054854 Radiosonde
PT2VHFU30548542022-12-06 01:00:23-15.6129-48.250523666578Clb=-4.5m/s t=-9.9C h=88.7% p=457.7hPa 403.001 MHz Type=RS41-SGP ser=U3054854 Radiosonde
PT2VHFU30548542022-12-06 00:59:40-15.6126-48.250222346720Clb=-4.7m/s t=-10.6C h=72.4% p=449.3hPa 403.001 MHz Type=RS41-SGP ser=U3054854 Radiosonde
PT2VHFU30548542022-12-06 00:58:15-15.6123-48.249526497014Clb=-4.6m/s t=-12.0C h=78.6% p=432.5hPa 403.001 MHz Type=RS41-SGP ser=U3054854 Radiosonde
PT2VHFU30548542022-12-06 00:57:28-15.6122-48.248725977159Clb=-4.4m/s t=-12.5C h=66.8% p=424.4hPa 403.001 MHz Type=RS41-SGP ser=U3054854 Radiosonde
PT2VHFU30548542022-12-06 00:55:12-15.6121-48.24818167596Clb=-4.3m/s t=-15.4C h=67.3% p=401.0hPa 403.001 MHz Type=RS41-SGP ser=U3054854 Radiosonde
PT2VHFU30548542022-12-06 00:54:25-15.6121-48.24811877751Clb=-4.6m/s t=-16.4C h=59.3% p=392.7hPa 403.001 MHz Type=RS41-SGP ser=U3054854 Radiosonde
PT2VHFU30548542022-12-06 00:53:36-15.6125-48.247728197905Clb=-4.8m/s t=-17.3C h=68.6% p=385.0hPa 403.001 MHz Type=RS41-SGP ser=U3054854 Radiosonde
PT2VHFU30548542022-12-06 00:52:46-15.6129-48.24711248062Clb=-4.8m/s t=-18.3C h=54.8% p=377.1hPa 403.001 MHz Type=RS41-SGP ser=U3054854 Radiosonde
PT2VHFU30548542022-12-06 00:51:58-15.613-48.2471238118221Clb=-4.8m/s t=-19.6C h=61.6% p=369.3hPa 403.001 MHz Type=RS41-SGP ser=U3054854 Radiosonde
PT2VHFU30548542022-12-06 00:51:27-15.6132-48.246623498385Clb=-5.3m/s t=-20.8C h=70.5% p=361.1hPa 403.001 MHz Type=RS41-SGP ser=U3054854 Radiosonde
PT2VHFU30548542022-12-06 00:50:55-15.6137-48.2463678559Clb=-5.4m/s t=-21.8C h=49.6% p=352.7hPa 403.001 MHz Type=RS41-SGP ser=U3054854 Radiosonde
PT2VHFU30548542022-12-06 00:50:25-15.6141-48.2455326198735Clb=-5.6m/s t=-23.2C h=46.6% p=344.4hPa 403.001 MHz Type=RS41-SGP ser=U3054854 Radiosonde
PT2VHFU30548542022-12-06 00:49:54-15.6146-48.2451322198906Clb=-5.6m/s t=-24.7C h=50.0% p=336.5hPa 403.001 MHz Type=RS41-SGP ser=U3054854 Radiosonde
PT2VHFU30548542022-12-06 00:49:36-15.6295-48.23763394410543Clb=-7.4m/s t=-37.2C h=75.2% p=267.4hPa 403.001 MHz Type=RS41-SGP ser=U3054854 Radiosonde
PT2VHFU30548542022-12-06 00:49:34-15.6325-48.23673503710778Clb=-7.8m/s t=-39.2C h=68.3% p=258.5hPa 403.001 MHz Type=RS41-SGP ser=U3054854 Radiosonde
PT2VHFU30548542022-12-06 00:49:32-15.6353-48.23623533511016Clb=-7.5m/s t=-41.2C h=61.1% p=249.7hPa 403.001 MHz Type=RS41-SGP ser=U3054854 Radiosonde
PT2VHFU30548542022-12-06 00:49:30-15.6382-48.2363564111258Clb=-7.6m/s t=-43.3C h=53.3% p=241.0hPa 403.001 MHz Type=RS41-SGP ser=U3054854 Radiosonde
PT2VHFU30548542022-12-06 00:49:28-15.6416-48.23583544411505Clb=-8.4m/s t=-45.5C h=47.2% p=232.2hPa 403.001 MHz Type=RS41-SGP ser=U3054854 Radiosonde
PT2VHFU30548542022-12-06 00:49:09-15.6451-48.23523504411761Clb=-8.6m/s t=-47.9C h=50.8% p=223.4hPa 403.001 MHz Type=RS41-SGP ser=U3054854 Radiosonde
PT2VHFU30548542022-12-06 00:48:16-15.6487-48.23423424812025Clb=-8.4m/s t=-50.4C h=51.2% p=214.7hPa 403.001 MHz Type=RS41-SGP ser=U3054854 Radiosonde
PT2VHFU30548542022-12-06 00:47:18-15.6526-48.23293455412292Clb=-8.9m/s t=-52.8C h=48.1% p=206.1hPa 403.001 MHz Type=RS41-SGP ser=U3054854 Radiosonde
PT2VHFU30548542022-12-06 00:46:23-15.6568-48.2323465912557Clb=-8.3m/s t=-54.9C h=49.6% p=197.7hPa 403.001 MHz Type=RS41-SGP ser=U3054854 Radiosonde
PT2VHFU30548542022-12-06 00:45:26-15.6617-48.23093506912830Clb=-8.4m/s t=-57.3C h=52.2% p=189.5hPa 403.001 MHz Type=RS41-SGP ser=U3054854 Radiosonde
PT2VHFU30548542022-12-06 00:44:35-15.6673-48.233527013110Clb=-8.6m/s t=-59.9C h=51.4% p=181.2hPa 403.001 MHz Type=RS41-SGP ser=U3054854 Radiosonde
PT2VHFU30548542022-12-06 00:43:39-15.6728-48.22913507213396Clb=-9.4m/s t=-62.6C h=51.0% p=173.1hPa 403.001 MHz Type=RS41-SGP ser=U3054854 Radiosonde
PT2VHFU30548542022-12-06 00:42:41-15.6785-48.22753387013691Clb=-9.7m/s t=-64.9C h=53.3% p=165.0hPa 403.001 MHz Type=RS41-SGP ser=U3054854 Radiosonde
PT2VHFU30548542022-12-06 00:41:40-15.6833-48.2253235913999Clb=-9.7m/s t=-67.2C h=53.6% p=156.9hPa 403.001 MHz Type=RS41-SGP ser=U3054854 Radiosonde
PT2VHFU30548542022-12-06 00:40:41-15.6867-48.22173166114296Clb=-9.9m/s t=-68.6C h=44.9% p=149.3hPa 403.001 MHz Type=RS41-SGP ser=U3054854 Radiosonde
PT2VHFU30548542022-12-06 00:39:44-15.69-48.21813095714605Clb=-10.6m/s t=-71.1C h=41.0% p=141.8hPa 403.001 MHz Type=RS41-SGP ser=U3054854 Radiosonde
PT2VHFU30548542022-12-06 00:38:49-15.6923-48.21483034614918Clb=-10.1m/s t=-73.6C h=36.7% p=134.5hPa 403.001 MHz Type=RS41-SGP ser=U3054854 Radiosonde
PT2VHFU30548542022-12-06 00:37:52-15.6946-48.2123164415241Clb=-11.4m/s t=-76.2C h=30.3% p=127.2hPa 403.001 MHz Type=RS41-SGP ser=U3054854 Radiosonde
PT2VHFU30548542022-12-06 00:36:46-15.6975-48.20913135715584Clb=-11.6m/s t=-78.3C h=27.7% p=119.9hPa 403.001 MHz Type=RS41-SGP ser=U3054854 Radiosonde
PT2VHFU30548542022-12-06 00:35:54-15.7004-48.20452977015939Clb=-12.3m/s t=-78.7C h=24.1% p=112.7hPa 403.001 MHz Type=RS41-SGP ser=U3054854 Radiosonde
PT2VHFU30548542022-12-06 00:35:27-15.7035-48.19923018016311Clb=-12.8m/s t=-79.0C h=18.5% p=105.6hPa 403.001 MHz Type=RS41-SGP ser=U3054854 Radiosonde
PT2VHFU30548542022-12-06 00:34:52-15.7066-48.19342978016705Clb=-13.1m/s t=-80.7C h=18.1% p=98.5hPa 403.001 MHz Type=RS41-SGP ser=U3054854 Radiosonde
PT2VHFU30548542022-12-06 00:34:24-15.7093-48.18752928117088Clb=-12.3m/s t=-78.9C h=12.9% p=92.1hPa 403.001 MHz Type=RS41-SGP ser=U3054854 Radiosonde
PT2VHFU30548542022-12-06 00:33:50-15.7124-48.18092868917499Clb=-13.0m/s t=-77.0C h=10.7% p=85.7hPa 403.001 MHz Type=RS41-SGP ser=U3054854 Radiosonde
PT2VHFU30548542022-12-06 00:33:19-15.7133-48.17462737217902Clb=-13.5m/s t=-74.0C h=7.3% p=80.0hPa 403.001 MHz Type=RS41-SGP ser=U3054854 Radiosonde
PT2VHFU30548542022-12-06 00:33:01-15.7074-48.11482855018883Clb=4.3m/s t=-70.8C h=10.3% p=67.6hPa 403.001 MHz Type=RS41-SGP ser=U3054854 Radiosonde
PT2VHFU30548542022-12-06 00:32:01-15.7077-48.11012746518722Clb=4.6m/s t=-71.3C h=11.6% p=69.5hPa 403.001 MHz Type=RS41-SGP ser=U3054854 Radiosonde
PT2VHFU30548542022-12-06 00:31:00-15.7084-48.10542815018564Clb=4.8m/s t=-74.1C h=14.5% p=71.3hPa 403.001 MHz Type=RS41-SGP ser=U3054854 Radiosonde
PT2VHFU30548542022-12-06 00:30:02-15.7087-48.10062816118405Clb=5.4m/s t=-73.9C h=16.5% p=73.3hPa 403.001 MHz Type=RS41-SGP ser=U3054854 Radiosonde
PT2VHFU30548542022-12-06 00:29:05-15.71-48.09552906318250Clb=4.7m/s t=-74.6C h=17.7% p=75.3hPa 403.001 MHz Type=RS41-SGP ser=U3054854 Radiosonde
PT2VHFU30548542022-12-06 00:28:08-15.7115-48.09062736318080Clb=4.4m/s t=-74.6C h=20.6% p=77.5hPa 403.001 MHz Type=RS41-SGP ser=U3054854 Radiosonde
PT2VHFU30548542022-12-06 00:27:07-15.7118-48.08512667017924Clb=3.9m/s t=-74.1C h=21.1% p=79.5hPa 403.001 MHz Type=RS41-SGP ser=U3054854 Radiosonde
PT2VHFU30548542022-12-06 00:26:07-15.712-48.07932787617779Clb=2.4m/s t=-75.1C h=26.4% p=81.6hPa 403.001 MHz Type=RS41-SGP ser=U3054854 Radiosonde
PT2VHFU30548542022-12-06 00:25:07-15.713-48.0732848317623Clb=2.8m/s t=-75.1C h=28.5% p=83.7hPa 403.001 MHz Type=RS41-SGP ser=U3054854 Radiosonde
PT2VHFU30548542022-12-06 00:24:07-15.715-48.06642928517470Clb=5.5m/s t=-77.0C h=32.5% p=86.0hPa 403.001 MHz Type=RS41-SGP ser=U3054854 Radiosonde
PT2VHFU30548542022-12-06 00:23:10-15.7184-48.05962989417299Clb=4.7m/s t=-78.2C h=35.9% p=88.5hPa 403.001 MHz Type=RS41-SGP ser=U3054854 Radiosonde
PT2VHFU30548542022-12-06 00:22:10-15.7218-48.05362928317132Clb=3.8m/s t=-78.6C h=39.3% p=91.2hPa 403.001 MHz Type=RS41-SGP ser=U3054854 Radiosonde
PT2VHFU30548542022-12-06 00:21:13-15.7243-48.04772907816972Clb=5.4m/s t=-79.5C h=41.8% p=93.7hPa 403.001 MHz Type=RS41-SGP ser=U3054854 Radiosonde
PT2VHFU30548542022-12-06 00:20:14-15.7269-48.04162978516826Clb=3.5m/s t=-79.3C h=42.6% p=96.2hPa 403.001 MHz Type=RS41-SGP ser=U3054854 Radiosonde
PT2VHFU30548542022-12-06 00:19:15-15.7299-48.03562948116667Clb=5.6m/s t=-80.0C h=44.3% p=99.0hPa 403.001 MHz Type=RS41-SGP ser=U3054854 Radiosonde
PT2VHFU30548542022-12-06 00:18:20-15.733-48.03033017416515Clb=3.3m/s t=-80.0C h=46.3% p=101.7hPa 403.001 MHz Type=RS41-SGP ser=U3054854 Radiosonde
PT2VHFU30548542022-12-06 00:17:20-15.7359-48.02462988316374Clb=4.4m/s t=-79.5C h=47.1% p=104.6hPa 403.001 MHz Type=RS41-SGP ser=U3054854 Radiosonde
PT2VHFU30548542022-12-06 00:16:22-15.7391-48.01913047616193Clb=3.8m/s t=-78.7C h=49.6% p=107.5hPa 403.001 MHz Type=RS41-SGP ser=U3054854 Radiosonde
PT2VHFU30548542022-12-06 00:15:43-15.7421-48.01423016916044Clb=5.0m/s t=-78.7C h=50.2% p=110.3hPa 403.001 MHz Type=RS41-SGP ser=U3054854 Radiosonde
PT2VHFU30548542022-12-06 00:15:15-15.7451-48.00963007815898Clb=4.3m/s t=-79.1C h=52.7% p=113.2hPa 403.001 MHz Type=RS41-SGP ser=U3054854 Radiosonde
PT2VHFU30548542022-12-06 00:14:44-15.7483-48.00453107215735Clb=6.2m/s t=-79.0C h=53.3% p=116.5hPa 403.001 MHz Type=RS41-SGP ser=U3054854 Radiosonde
PT2VHFU30548542022-12-06 00:14:34-15.7519-48.00083195915572Clb=4.3m/s t=-78.3C h=53.9% p=119.8hPa 403.001 MHz Type=RS41-SGP ser=U3054854 Radiosonde
PT2VHFU30548542022-12-06 00:14:01-15.7552-47.9983255015398Clb=4.2m/s t=-77.4C h=54.5% p=123.5hPa 403.001 MHz Type=RS41-SGP ser=U3054854 Radiosonde
PT2VHFU30548542022-12-06 00:13:52-15.7582-47.9963263915237Clb=4.4m/s t=-76.1C h=54.5% p=127.0hPa 403.001 MHz Type=RS41-SGP ser=U3054854 Radiosonde
PT2VHFU30548542022-12-06 00:13:44-15.7609-47.9943214415066Clb=4.4m/s t=-74.7C h=53.3% p=130.7hPa 403.001 MHz Type=RS41-SGP ser=U3054854 Radiosonde
PT2VHFU30548542022-12-06 00:13:39-15.7635-47.99153154414906Clb=4.1m/s t=-73.4C h=53.2% p=134.4hPa 403.001 MHz Type=RS41-SGP ser=U3054854 Radiosonde
PT2VHFU30548542022-12-06 00:13:36-15.7661-47.98873135214738Clb=5.7m/s t=-72.0C h=53.8% p=138.2hPa 403.001 MHz Type=RS41-SGP ser=U3054854 Radiosonde
PT2VHFU30548542022-12-06 00:13:27-15.769-47.98573135414558Clb=5.8m/s t=-70.5C h=52.8% p=142.4hPa 403.001 MHz Type=RS41-SGP ser=U3054854 Radiosonde
PT2VHFU30548542022-12-06 00:13:00-15.7722-47.98253057414396Clb=5.0m/s t=-69.2C h=-1.0% p=-1.0hPa 403.001 MHz Type=RS41-SGP ser=U3054854 Radiosonde
PT2VHFU30548542022-12-06 00:12:59-15.7761-47.97883226514220Clb=5.9m/s t=-273.0C h=-1.0% p=-1.0hPa 403.001 MHz Type=RS41-SGP ser=U3054854 Radiosonde
PT2VHFU30548542022-12-06 00:12:57-15.78-47.97553206114061Clb=5.6m/s t=-273.0C h=-1.0% p=-1.0hPa 403.001 MHz Type=RS41 ser=U3054854 Radiosonde